KHMT/HMT METAR and TAF weather

Enter ICAO airport designator
Station Type Date Time Source
KHMT METAR 2021/07/30 21:55 UTC NOAA

KHMT 302155Z AUTO 22011KT 10SM OVC110 36/13 A2992 RMK AO2 T03610133


Station Type Date Time Source
KHMT Decoded METAR 2021/07/30 21:55 UTC NOAA

Station name not available
Jul 30, 2021 - 05:55 PM EDT / 2021.07.30 2155 UTC
Wind: from the SW (220 degrees) at 13 MPH (11 KT):0
Visibility: 10 mile(s):0
Sky conditions: overcast
Temperature: 97.0 F (36.1 C)
Heat index: 95.4 F (35.2 C):1
Dew Point: 55.9 F (13.3 C)
Relative Humidity: 25%
Pressure (altimeter): 29.92 in. Hg (1013 hPa)
ob: KHMT 302155Z AUTO 22011KT 10SM OVC110 36/13 A2992 RMK AO2 T03610133
cycle: 22

Station Type Date Time Source
KHMT TAF UTC NOAA

Error!

Example: see airport list